Time;durP1;ratioP1;P1;durP2;ratioP2;P2;SDS_P1;SDS_P2;PMS_P1;PMS_P2;Temp;Humidity;BMP_temperature;BMP_pressure;BME280_temperature;BME280_humidity;BME280_pressure;Samples;Min_cycle;Max_cycle;Signal;HPM_P1;HPM_P2
2021/03/02 00:01:09;;;;;;;6.50;4.30;;;;;;;8.94;54.42;96857.84;5002785;28;20246;-84
2021/03/02 00:03:38;;;;;;;6.57;4.60;;;;;;;8.91;54.85;96854.72;5009983;28;20325;-84
2021/03/02 00:06:05;;;;;;;5.27;4.10;;;;;;;8.93;54.68;96857.97;4995036;28;20235;-84
2021/03/02 00:08:32;;;;;;;6.73;4.20;;;;;;;8.91;54.79;96859.88;4993947;28;20215;-84
2021/03/02 00:10:59;;;;;;;5.93;4.70;;;;;;;8.85;54.40;96852.72;5000471;28;20210;-84
2021/03/02 00:13:26;;;;;;;4.93;4.43;;;;;;;8.78;54.67;96860.13;5001813;28;20231;-84
2021/03/02 00:15:52;;;;;;;6.10;4.93;;;;;;;8.83;54.40;96855.41;4989765;28;20620;-84
2021/03/02 00:18:20;;;;;;;5.97;4.93;;;;;;;8.87;54.36;96855.94;4995969;28;20218;-84
2021/03/02 00:20:48;;;;;;;5.43;4.90;;;;;;;8.86;54.19;96862.00;5007297;28;20235;-84
2021/03/02 00:23:18;;;;;;;4.90;4.40;;;;;;;8.78;54.50;96862.69;4989889;28;20243;-84
2021/03/02 00:25:49;;;;;;;5.27;4.07;;;;;;;8.79;54.56;96864.31;5009330;28;20249;-84
2021/03/02 00:28:16;;;;;;;5.90;4.70;;;;;;;8.82;54.86;96865.81;5008689;28;20206;-84
2021/03/02 00:30:43;;;;;;;6.07;4.83;;;;;;;8.74;54.32;96857.97;5009864;28;20218;-85
2021/03/02 00:33:11;;;;;;;7.00;5.17;;;;;;;8.66;54.95;96872.25;5008854;28;20711;-84
2021/03/02 00:35:37;;;;;;;5.83;5.07;;;;;;;8.58;54.92;96866.19;5008729;28;20222;-84
2021/03/02 00:38:04;;;;;;;7.13;5.03;;;;;;;8.59;55.24;96872.94;5008863;28;20226;-85
2021/03/02 00:40:30;;;;;;;8.50;5.70;;;;;;;8.59;55.00;96866.06;4990022;28;20212;-84
2021/03/02 00:42:57;;;;;;;8.20;5.93;;;;;;;8.65;54.57;96872.44;4991384;28;20900;-84
2021/03/02 00:45:23;;;;;;;8.43;6.10;;;;;;;8.69;54.66;96866.06;4989540;28;20232;-84
2021/03/02 00:47:49;;;;;;;10.33;6.30;;;;;;;8.68;54.47;96867.00;5006443;28;20882;-84
2021/03/02 00:50:15;;;;;;;7.83;6.20;;;;;;;8.69;54.71;96873.75;5008879;28;20730;-84
2021/03/02 00:52:41;;;;;;;8.43;6.23;;;;;;;8.65;54.83;96867.28;5002248;28;20723;-84
2021/03/02 00:55:09;;;;;;;7.37;5.80;;;;;;;8.62;54.98;96868.34;4988742;28;20235;-84
2021/03/02 00:57:35;;;;;;;7.33;5.70;;;;;;;8.61;55.15;96864.16;5005560;28;20904;-84
2021/03/02 01:00:01;;;;;;;7.43;5.67;;;;;;;8.60;55.09;96867.69;5008573;28;20315;-84
2021/03/02 01:02:27;;;;;;;6.20;5.17;;;;;;;8.57;54.94;96865.38;4994140;28;20236;-84
2021/03/02 01:04:53;;;;;;;6.73;5.10;;;;;;;8.58;55.45;96861.06;5009069;28;20731;-84
2021/03/02 01:07:19;;;;;;;5.87;5.07;;;;;;;8.50;55.59;96864.25;4995908;28;20199;-84
2021/03/02 01:09:45;;;;;;;6.60;5.63;;;;;;;8.37;56.57;96861.13;4997599;28;20230;-84
2021/03/02 01:12:12;;;;;;;7.13;5.37;;;;;;;8.18;56.93;96856.72;4996496;28;20231;-84
2021/03/02 01:14:38;;;;;;;6.13;5.50;;;;;;;8.23;56.61;96864.84;4999591;28;20768;-84
2021/03/02 01:17:04;;;;;;;8.13;5.77;;;;;;;8.26;56.23;96862.03;5008876;28;20257;-84
2021/03/02 01:19:30;;;;;;;7.50;5.53;;;;;;;8.21;56.53;96861.59;5000097;28;20209;-84
2021/03/02 01:21:56;;;;;;;8.83;5.73;;;;;;;8.18;57.06;96866.19;4990906;28;20223;-84
2021/03/02 01:24:22;;;;;;;6.37;5.67;;;;;;;8.07;57.19;96853.47;5002457;28;20222;-84
2021/03/02 01:26:48;;;;;;;6.00;5.40;;;;;;;7.90;57.73;96847.97;4996016;28;20250;-84
2021/03/02 01:29:15;;;;;;;8.23;6.00;;;;;;;7.81;57.73;96856.44;4989599;28;20960;-84
2021/03/02 01:31:41;;;;;;;6.57;5.80;;;;;;;7.86;57.81;96856.06;5000843;28;20195;-83
2021/03/02 01:34:07;;;;;;;6.70;5.77;;;;;;;7.87;57.81;96850.81;5009535;28;20236;-84
2021/03/02 01:36:33;;;;;;;6.80;6.07;;;;;;;7.92;58.37;96852.97;5007125;28;20222;-84
2021/03/02 01:38:58;;;;;;;7.87;6.40;;;;;;;7.86;58.33;96851.75;5008655;28;20815;-84
2021/03/02 01:41:24;;;;;;;7.53;5.90;;;;;;;7.77;57.85;96849.13;5007592;28;20230;-85
2021/03/02 01:43:50;;;;;;;7.73;5.63;;;;;;;7.77;58.39;96849.13;5008282;28;20845;-84
2021/03/02 01:46:17;;;;;;;11.00;6.87;;;;;;;7.73;58.81;96851.13;5008917;28;20226;-84
2021/03/02 01:48:44;;;;;;;6.43;5.83;;;;;;;7.59;58.89;96857.41;5009432;28;20226;-84
2021/03/02 01:51:11;;;;;;;8.17;6.93;;;;;;;7.64;58.80;96846.78;5001171;28;20220;-84
2021/03/02 01:53:38;;;;;;;9.43;6.80;;;;;;;7.57;59.17;96841.34;4989180;28;20219;-84
2021/03/02 01:56:04;;;;;;;8.63;7.00;;;;;;;7.47;60.23;96842.25;4994829;28;20226;-84
2021/03/02 01:58:30;;;;;;;7.23;6.50;;;;;;;7.38;60.43;96848.09;5009480;28;20206;-84
2021/03/02 02:00:58;;;;;;;8.83;7.07;;;;;;;7.32;60.76;96843.47;5006926;28;20223;-84
2021/03/02 02:03:32;;;;;;;7.80;7.00;;;;;;;7.26;60.85;96853.31;5008767;28;20253;-84
2021/03/02 02:06:02;;;;;;;9.17;6.93;;;;;;;7.30;60.75;96848.75;5004392;28;20265;-84
2021/03/02 02:08:38;;;;;;;12.17;7.83;;;;;;;7.20;61.48;96847.88;4993324;28;20226;-84
2021/03/02 02:11:13;;;;;;;8.00;7.17;;;;;;;7.24;61.20;96844.94;4998584;28;20225;-84
2021/03/02 02:13:46;;;;;;;8.90;6.87;;;;;;;7.41;60.58;96846.13;5012830;28;20202;-85
2021/03/02 02:16:14;;;;;;;9.80;6.77;;;;;;;7.54;59.96;96854.41;5010976;28;20219;-84
2021/03/02 02:18:44;;;;;;;9.07;7.80;;;;;;;7.46;60.06;96846.56;5011932;28;20590;-84
2021/03/02 02:21:23;;;;;;;11.10;7.50;;;;;;;7.49;59.92;96848.06;5009981;28;20234;-84
2021/03/02 02:24:03;;;;;;;9.40;7.23;;;;;;;7.41;60.33;96851.25;5014354;28;20751;-84
2021/03/02 02:26:43;;;;;;;8.93;7.20;;;;;;;7.32;60.52;96851.16;4997898;28;20230;-84
2021/03/02 02:29:11;;;;;;;10.50;7.30;;;;;;;7.42;60.30;96852.06;4992409;28;20238;-84
2021/03/02 02:31:38;;;;;;;9.93;7.20;;;;;;;7.51;60.25;96857.22;5005364;28;20843;-84
2021/03/02 02:34:04;;;;;;;9.63;7.80;;;;;;;7.62;59.20;96853.78;4992968;28;20231;-84
2021/03/02 02:36:32;;;;;;;11.53;7.70;;;;;;;7.68;59.26;96860.97;5001513;28;20229;-84
2021/03/02 02:39:00;;;;;;;8.40;7.33;;;;;;;7.66;59.16;96854.34;5011400;28;20598;-84
2021/03/02 02:41:28;;;;;;;8.37;7.03;;;;;;;7.65;58.72;96856.09;4997659;28;20750;-84
2021/03/02 02:43:56;;;;;;;9.57;7.23;;;;;;;7.61;58.81;96859.84;4999208;28;20191;-84
2021/03/02 02:46:24;;;;;;;8.27;7.23;;;;;;;7.62;58.76;96858.91;5012092;28;20230;-84
2021/03/02 02:48:51;;;;;;;8.63;6.80;;;;;;;7.54;58.59;96856.97;5008678;28;20233;-84
2021/03/02 02:51:18;;;;;;;8.90;6.87;;;;;;;7.45;59.21;96859.50;5003528;28;20249;-84
2021/03/02 02:53:45;;;;;;;8.53;6.87;;;;;;;7.41;58.58;96856.38;4993409;28;20223;-84
2021/03/02 02:56:13;;;;;;;12.40;6.97;;;;;;;7.43;58.33;96854.50;4991499;28;20239;-84
2021/03/02 02:58:44;;;;;;;7.90;6.70;;;;;;;7.44;58.27;96852.75;5008764;28;20775;-84
2021/03/02 03:01:13;;;;;;;7.63;6.83;;;;;;;7.43;58.51;96853.69;4999933;28;20360;-84
2021/03/02 03:03:44;;;;;;;9.43;7.00;;;;;;;7.43;59.04;96848.56;4994696;28;20257;-84
2021/03/02 03:06:13;;;;;;;9.27;7.30;;;;;;;7.40;58.89;96846.25;5011264;28;20678;-84
2021/03/02 03:08:46;;;;;;;8.87;7.63;;;;;;;7.29;59.13;96849.69;5004301;28;20220;-84
2021/03/02 03:11:12;;;;;;;9.17;7.17;;;;;;;7.26;59.11;96863.56;5002251;28;20629;-84
2021/03/02 03:13:42;;;;;;;10.43;7.30;;;;;;;7.24;58.95;96860.31;5006132;28;20203;-85
2021/03/02 03:16:12;;;;;;;9.57;7.10;;;;;;;7.18;58.75;96863.34;5001078;28;20309;-84
2021/03/02 03:18:44;;;;;;;9.13;7.03;;;;;;;7.19;58.60;96862.41;5004642;28;20219;-84
2021/03/02 03:21:12;;;;;;;9.47;6.87;;;;;;;7.19;58.74;96856.47;5001047;28;20697;-84
2021/03/02 03:23:39;;;;;;;7.93;7.13;;;;;;;7.18;58.42;96862.53;5005664;28;20226;-85
2021/03/02 03:26:06;;;;;;;10.90;7.23;;;;;;;7.03;58.92;96866.34;4991078;28;20234;-84
2021/03/02 03:28:33;;;;;;;8.53;7.00;;;;;;;6.97;58.59;96864.25;5005744;28;20226;-84
2021/03/02 03:31:00;;;;;;;9.30;6.90;;;;;;;6.85;58.73;96869.44;5001306;28;20592;-84
2021/03/02 03:33:30;;;;;;;10.23;7.30;;;;;;;6.81;59.03;96864.66;4991128;28;20227;-85
2021/03/02 03:35:57;;;;;;;7.53;6.70;;;;;;;6.72;59.13;96861.13;4999032;28;20223;-84
2021/03/02 03:38:23;;;;;;;9.57;7.40;;;;;;;6.74;58.86;96858.41;5010603;28;20226;-84
2021/03/02 03:40:49;;;;;;;8.30;6.93;;;;;;;6.73;58.83;96862.75;5009673;28;20632;-84
2021/03/02 03:43:15;;;;;;;8.80;7.27;;;;;;;6.71;58.98;96864.59;5011023;28;20203;-84
2021/03/02 03:45:41;;;;;;;9.00;7.07;;;;;;;6.68;59.41;96869.97;4993104;28;20731;-84
2021/03/02 03:48:08;;;;;;;9.67;7.07;;;;;;;6.56;59.46;96864.03;4990977;28;20231;-84
2021/03/02 03:50:35;;;;;;;9.77;7.90;;;;;;;6.54;58.76;96872.78;5000635;28;20227;-84
2021/03/02 03:53:03;;;;;;;10.10;7.60;;;;;;;6.41;59.48;96872.09;4991251;28;20227;-84
2021/03/02 03:55:33;;;;;;;8.57;7.70;;;;;;;6.29;59.69;96873.88;4998529;28;20227;-85
2021/03/02 03:58:00;;;;;;;9.37;7.83;;;;;;;6.32;60.03;96870.28;4990906;28;20235;-84
2021/03/02 04:00:27;;;;;;;8.30;7.23;;;;;;;6.38;59.61;96872.34;5000385;28;20218;-84
2021/03/02 04:02:53;;;;;;;9.67;7.47;;;;;;;6.28;59.83;96868.88;4990497;28;20656;-84
2021/03/02 04:05:20;;;;;;;10.43;7.73;;;;;;;6.23;60.02;96879.44;5002981;28;20231;-84
2021/03/02 04:07:48;;;;;;;10.83;8.40;;;;;;;6.24;60.47;96876.78;5010191;28;20214;-85
2021/03/02 04:10:15;;;;;;;8.77;7.80;;;;;;;6.28;59.57;96868.88;4993165;28;20199;-84
2021/03/02 04:12:43;;;;;;;9.27;7.30;;;;;;;6.30;59.77;96867.81;5011353;28;20238;-84
2021/03/02 04:15:10;;;;;;;9.07;8.10;;;;;;;6.23;60.00;96875.16;4992851;28;20236;-84
2021/03/02 04:17:36;;;;;;;9.20;7.63;;;;;;;6.13;60.00;96876.78;4990811;28;20714;-84
2021/03/02 04:20:03;;;;;;;9.07;7.20;;;;;;;6.01;60.76;96882.00;5005305;28;20230;-84
2021/03/02 04:22:33;;;;;;;8.47;7.10;;;;;;;6.06;60.50;96882.47;4990746;28;20224;-84
2021/03/02 04:25:00;;;;;;;8.17;6.47;;;;;;;6.10;60.16;96882.13;5004297;28;20636;-84
2021/03/02 04:27:26;;;;;;;10.30;6.90;;;;;;;6.07;60.64;96879.81;5010369;28;20230;-84
2021/03/02 04:29:52;;;;;;;8.77;7.53;;;;;;;6.02;60.17;96879.34;4996524;28;20311;-84
2021/03/02 04:32:18;;;;;;;8.77;7.00;;;;;;;6.06;59.72;96885.03;5007977;28;20714;-84
2021/03/02 04:34:44;;;;;;;9.50;7.30;;;;;;;6.02;60.00;96881.91;4998833;28;20231;-85
2021/03/02 04:37:10;;;;;;;12.03;7.10;;;;;;;6.07;59.65;96879.00;5003306;28;20948;-84
2021/03/02 04:39:36;;;;;;;14.17;7.53;;;;;;;6.03;59.92;96886.06;5009700;28;20227;-84
2021/03/02 04:42:04;;;;;;;10.47;7.27;;;;;;;6.05;60.13;96880.84;4993648;28;20235;-84
2021/03/02 04:44:29;;;;;;;10.57;7.60;;;;;;;6.03;59.99;96891.19;5002435;28;20629;-84
2021/03/02 04:46:55;;;;;;;10.50;7.90;;;;;;;6.02;60.22;96891.31;4996059;28;20220;-84
2021/03/02 04:49:21;;;;;;;9.17;7.03;;;;;;;5.99;60.31;96887.25;4990028;28;20203;-84
2021/03/02 04:51:47;;;;;;;12.53;7.47;;;;;;;6.04;59.42;96897.94;5002670;28;20218;-84
2021/03/02 04:54:14;;;;;;;11.07;7.73;;;;;;;6.02;59.76;96896.41;5009761;28;20233;-84
2021/03/02 04:56:39;;;;;;;8.60;7.40;;;;;;;5.94;60.01;96897.00;4997406;28;20234;-84
2021/03/02 04:59:06;;;;;;;10.97;7.27;;;;;;;5.86;60.14;96897.56;4989801;28;20234;-84
2021/03/02 05:01:35;;;;;;;9.90;7.57;;;;;;;5.87;60.12;96898.38;5001262;28;20215;-84
2021/03/02 05:04:01;;;;;;;10.33;8.03;;;;;;;5.87;59.97;96899.19;5010301;28;20227;-84
2021/03/02 05:06:27;;;;;;;10.43;7.93;;;;;;;5.79;60.29;96904.03;4999945;28;20254;-84
2021/03/02 05:08:53;;;;;;;11.60;8.33;;;;;;;5.76;60.58;96900.91;4992238;28;20222;-84
2021/03/02 05:11:19;;;;;;;10.70;7.90;;;;;;;5.78;60.44;96897.28;4998916;28;20940;-84
2021/03/02 05:13:45;;;;;;;9.00;8.10;;;;;;;5.87;59.89;96895.81;4994619;28;20196;-85
2021/03/02 05:16:12;;;;;;;11.30;7.90;;;;;;;5.86;60.01;96907.78;4991792;28;20227;-85
2021/03/02 05:18:38;;;;;;;11.40;7.67;;;;;;;5.89;60.05;96896.53;5010730;28;20230;-85
2021/03/02 05:21:05;;;;;;;10.37;8.17;;;;;;;5.87;59.99;96898.38;4998873;28;20227;-84
2021/03/02 05:23:31;;;;;;;9.67;8.03;;;;;;;5.85;59.98;96897.66;4998937;28;20226;-85
2021/03/02 05:25:57;;;;;;;9.70;7.47;;;;;;;5.79;59.96;96901.47;5011466;28;20546;-84
2021/03/02 05:28:23;;;;;;;11.77;8.30;;;;;;;5.73;60.23;96899.41;4994640;28;20334;-84
2021/03/02 05:30:49;;;;;;;9.43;7.53;;;;;;;5.74;59.83;96902.78;4991258;28;20230;-84
2021/03/02 05:33:15;;;;;;;10.10;7.80;;;;;;;5.77;59.95;96900.78;5002233;28;20222;-85
2021/03/02 05:35:41;;;;;;;11.80;7.93;;;;;;;5.74;60.41;96902.78;5007893;28;20608;-85
2021/03/02 05:38:07;;;;;;;12.60;7.93;;;;;;;5.79;60.33;96901.47;5004554;28;20227;-85
2021/03/02 05:40:33;;;;;;;9.67;7.67;;;;;;;5.83;59.77;96895.22;5003563;28;20254;-84
2021/03/02 05:42:59;;;;;;;12.43;7.70;;;;;;;5.72;60.29;96905.44;5008542;28;20222;-84
2021/03/02 05:45:25;;;;;;;12.23;7.77;;;;;;;5.75;60.27;96904.41;5010538;28;20229;-84
2021/03/02 05:47:53;;;;;;;8.47;7.00;;;;;;;5.79;59.83;96909.16;5009641;28;20230;-85
2021/03/02 05:50:22;;;;;;;9.43;7.63;;;;;;;5.79;59.96;96910.88;5011022;28;20230;-84
2021/03/02 05:52:48;;;;;;;11.93;7.87;;;;;;;5.75;60.03;96912.88;5003533;28;20286;-84
2021/03/02 05:55:15;;;;;;;10.10;6.83;;;;;;;5.79;60.14;96911.69;5011209;28;20226;-84
2021/03/02 05:57:41;;;;;;;14.67;9.07;;;;;;;5.78;59.89;96912.63;5012000;28;20315;-84
2021/03/02 06:00:08;;;;;;;13.10;7.67;;;;;;;5.77;60.65;96910.22;5000107;28;20614;-84
2021/03/02 06:02:34;;;;;;;11.73;7.97;;;;;;;5.80;60.06;96915.88;5012073;28;20230;-85
2021/03/02 06:05:00;;;;;;;12.60;8.10;;;;;;;5.81;60.23;96914.97;5011077;28;20209;-85
2021/03/02 06:07:27;;;;;;;13.13;7.70;;;;;;;5.78;60.49;96909.25;5012147;28;20203;-84
2021/03/02 06:09:53;;;;;;;12.47;7.70;;;;;;;5.80;60.29;96917.63;5009857;28;20293;-83
2021/03/02 06:12:19;;;;;;;11.13;7.17;;;;;;;5.82;60.11;96924.25;5009422;28;20961;-85
2021/03/02 06:14:46;;;;;;;14.40;7.23;;;;;;;5.86;59.90;96928.22;4999057;28;20277;-84
2021/03/02 06:17:13;;;;;;;9.70;7.03;;;;;;;5.85;60.07;96923.22;5017325;28;20237;-85
2021/03/02 06:19:42;;;;;;;11.30;7.27;;;;;;;5.77;59.87;96916.09;5005868;28;20198;-85
2021/03/02 06:22:09;;;;;;;13.30;7.57;;;;;;;5.75;59.68;96919.72;5012002;28;20346;-85
2021/03/02 06:24:39;;;;;;;12.83;7.77;;;;;;;5.75;60.22;96917.19;4999809;28;20495;-85
2021/03/02 06:27:07;;;;;;;38.33;26.90;;;;;;;5.74;61.33;96918.09;5006474;28;20297;-85
2021/03/02 06:29:33;;;;;;;21.63;12.73;;;;;;;5.87;60.79;96924.75;5007424;28;20223;-85
2021/03/02 06:32:00;;;;;;;15.73;9.40;;;;;;;6.04;60.14;96935.47;5013475;28;20261;-85
2021/03/02 06:34:26;;;;;;;14.83;8.80;;;;;;;6.22;60.39;96936.63;5010833;28;20203;-84
2021/03/02 06:37:02;;;;;;;12.23;7.60;;;;;;;6.48;59.11;96932.09;5000334;28;20238;-85
2021/03/02 06:39:31;;;;;;;9.30;7.07;;;;;;;6.68;59.40;96933.94;5000943;28;20264;-84
2021/03/02 06:42:15;;;;;;;12.40;7.40;;;;;;;6.99;57.58;96937.47;5008298;28;20223;-84
2021/03/02 06:44:43;;;;;;;10.00;7.50;;;;;;;7.25;57.16;96931.09;5012927;28;20226;-85
2021/03/02 06:47:09;;;;;;;11.87;7.33;;;;;;;7.39;56.91;96936.84;5004845;28;20637;-84
2021/03/02 06:49:41;;;;;;;15.23;7.27;;;;;;;7.68;55.92;96932.75;5006339;28;20199;-85
2021/03/02 06:52:17;;;;;;;13.33;8.00;;;;;;;7.84;55.33;96938.25;4997606;28;20219;-85
2021/03/02 06:54:44;;;;;;;35.97;25.90;;;;;;;8.03;54.97;96942.69;5012982;28;20229;-84
2021/03/02 06:57:10;;;;;;;13.67;10.47;;;;;;;8.20;54.66;96954.91;5012454;28;20284;-85
2021/03/02 06:59:37;;;;;;;9.00;6.97;;;;;;;8.37;53.88;96947.56;5012305;28;20219;-84
2021/03/02 07:02:03;;;;;;;11.63;7.97;;;;;;;8.47;53.27;96953.53;4996261;28;20220;-84
2021/03/02 07:04:33;;;;;;;10.17;7.50;;;;;;;8.56;53.56;96958.72;5010082;28;20196;-84
2021/03/02 07:07:07;;;;;;;8.47;7.50;;;;;;;8.59;53.18;96955.91;4997720;28;20811;-84
2021/03/02 07:09:40;;;;;;;8.40;7.00;;;;;;;8.74;53.18;96958.91;5001988;28;20214;-85
2021/03/02 07:12:12;;;;;;;10.23;7.07;;;;;;;8.90;52.50;96958.41;5009787;28;20379;-85
2021/03/02 07:14:42;;;;;;;9.33;7.77;;;;;;;9.10;52.11;96966.97;5006039;28;20223;-84
2021/03/02 07:17:16;;;;;;;10.47;7.47;;;;;;;9.39;51.27;96960.09;5001288;28;20301;-85
2021/03/02 07:19:47;;;;;;;9.70;7.70;;;;;;;9.61;50.94;96962.41;5005719;28;20248;-85
2021/03/02 07:22:18;;;;;;;9.87;7.57;;;;;;;9.81;50.52;96964.97;5010369;28;20674;-85
2021/03/02 07:24:48;;;;;;;12.90;8.10;;;;;;;10.02;50.37;96965.56;4995787;28;20230;-85
2021/03/02 07:27:15;;;;;;;12.33;7.83;;;;;;;10.29;50.00;96964.84;5002469;28;20227;-83
2021/03/02 07:29:42;;;;;;;11.67;8.03;;;;;;;10.55;49.27;96965.03;5004845;28;20222;-84
2021/03/02 07:32:09;;;;;;;8.90;7.73;;;;;;;10.69;48.39;96962.81;5003625;28;20276;-84
2021/03/02 07:34:36;;;;;;;11.63;7.47;;;;;;;10.53;49.09;96959.22;4997587;28;20199;-85
2021/03/02 07:37:02;;;;;;;15.17;7.80;;;;;;;10.28;49.36;96966.63;5003976;28;20231;-85
2021/03/02 07:39:28;;;;;;;21.53;14.53;;;;;;;10.30;49.22;96967.31;5003512;28;20361;-84
2021/03/02 07:41:56;;;;;;;16.50;11.33;;;;;;;10.52;49.01;96968.72;5005484;28;20226;-85
2021/03/02 07:44:23;;;;;;;12.63;8.10;;;;;;;10.95;48.19;96964.72;5000692;28;20243;-85
2021/03/02 07:46:53;;;;;;;8.57;7.47;;;;;;;11.33;47.69;96966.22;5008006;28;20219;-85
2021/03/02 07:49:35;;;;;;;13.93;7.70;;;;;;;11.61;46.43;96970.31;5003355;28;20199;-85
2021/03/02 07:52:21;;;;;;;9.10;7.20;;;;;;;11.93;45.85;96969.00;5000017;28;20222;-85
2021/03/02 07:54:48;;;;;;;11.90;7.57;;;;;;;12.09;46.01;96975.09;5006537;28;20231;-86
2021/03/02 07:57:25;;;;;;;11.70;7.37;;;;;;;12.32;45.02;96966.81;5009807;28;20582;-85
2021/03/02 08:00:22;;;;;;;11.93;7.73;;;;;;;12.56;44.49;96981.63;5009052;28;20717;-85
2021/03/02 08:03:29;;;;;;;12.80;7.33;;;;;;;12.76;43.65;96975.25;5007439;28;20234;-85
2021/03/02 08:05:58;;;;;;;11.20;7.27;;;;;;;12.96;43.76;96981.00;5003503;28;20234;-86
2021/03/02 08:08:38;;;;;;;10.80;7.73;;;;;;;12.97;43.32;96969.69;5000899;28;20245;-85
2021/03/02 08:11:29;;;;;;;13.07;6.80;;;;;;;13.09;43.31;96976.16;4996693;28;20195;-85
2021/03/02 08:13:55;;;;;;;8.23;7.10;;;;;;;13.17;43.69;96975.41;4994870;28;20772;-85
2021/03/02 08:16:52;;;;;;;8.03;7.23;;;;;;;13.38;42.74;96974.00;5000410;28;20697;-85
2021/03/02 08:19:31;;;;;;;11.90;7.43;;;;;;;13.57;42.07;96972.09;5008353;28;20219;-85
2021/03/02 08:21:58;;;;;;;9.60;8.00;;;;;;;13.78;42.85;96981.00;5005693;28;20784;-86
2021/03/02 08:24:54;;;;;;;8.30;6.97;;;;;;;13.96;41.99;96977.44;5002513;28;20225;-86
2021/03/02 08:27:36;;;;;;;10.10;7.07;;;;;;;14.04;41.36;96983.44;4996851;28;20239;-85
2021/03/02 08:30:04;;;;;;;9.23;6.73;;;;;;;14.11;40.97;96979.19;5007873;28;20247;-86
2021/03/02 08:32:30;;;;;;;8.90;7.10;;;;;;;14.22;41.00;96972.88;5000816;28;20223;-86
2021/03/02 08:34:56;;;;;;;11.27;7.07;;;;;;;14.25;40.96;96976.88;5006238;28;20207;-86
2021/03/02 08:40:16;;;;;;;7.30;6.60;;;;;;;14.20;39.81;96977.41;5065165;27;742382;-86
2021/03/02 08:43:01;;;;;;;8.33;6.90;;;;;;;14.11;40.12;96975.78;5083679;28;20227;-86
2021/03/02 08:45:27;;;;;;;9.87;6.97;;;;;;;14.22;40.40;96979.84;5065767;28;20279;-86
2021/03/02 08:48:11;;;;;;;9.60;7.47;;;;;;;14.39;39.99;96981.41;5062321;28;20213;-86
2021/03/02 08:50:37;;;;;;;11.20;8.80;;;;;;;14.50;40.06;96978.50;5059139;28;20229;-86
2021/03/02 08:53:03;;;;;;;10.27;8.07;;;;;;;14.68;39.87;96989.44;5053685;28;20204;-86
2021/03/02 08:55:37;;;;;;;13.13;7.27;;;;;;;14.76;39.57;96984.25;5063795;28;20700;-86
2021/03/02 08:58:03;;;;;;;11.80;7.23;;;;;;;14.79;39.64;96989.09;5051019;28;20225;-85
2021/03/02 09:00:30;;;;;;;9.70;7.57;;;;;;;14.92;39.75;96978.19;5057344;28;20236;-87
2021/03/02 09:02:57;;;;;;;11.40;7.30;;;;;;;14.99;38.89;96981.72;5055103;28;20221;-86
2021/03/02 09:05:23;;;;;;;10.90;7.50;;;;;;;14.88;39.09;96978.69;5048089;28;20229;-86
2021/03/02 09:08:06;;;;;;;7.97;7.17;;;;;;;14.93;38.81;96984.97;5057728;28;20193;-86
2021/03/02 09:10:32;;;;;;;9.30;7.50;;;;;;;15.06;39.26;96980.06;5062928;28;20208;-86
2021/03/02 09:12:59;;;;;;;9.27;7.43;;;;;;;15.27;38.58;96989.03;5048420;28;20233;-86
2021/03/02 09:15:34;;;;;;;8.17;7.00;;;;;;;15.38;39.01;96986.06;5063826;28;20223;-87
2021/03/02 09:18:11;;;;;;;8.30;7.43;;;;;;;15.29;38.03;96979.28;5069575;28;20307;-87
2021/03/02 09:20:37;;;;;;;7.70;6.43;;;;;;;15.21;37.60;96982.72;5067141;28;20216;-86
2021/03/02 09:23:03;;;;;;;8.83;7.10;;;;;;;15.19;37.80;96989.91;5065741;28;20690;-87
2021/03/02 09:25:30;;;;;;;7.17;6.47;;;;;;;15.28;38.12;96981.06;5063907;28;20213;-86
2021/03/02 09:27:56;;;;;;;11.07;6.67;;;;;;;15.44;37.68;96983.56;5057926;28;20217;-87
2021/03/02 09:30:25;;;;;;;10.70;7.23;;;;;;;15.44;36.93;96977.56;5054582;28;20763;-86
2021/03/02 09:32:53;;;;;;;10.10;6.80;;;;;;;15.33;37.11;96985.75;5053769;28;20225;-86
2021/03/02 09:35:21;;;;;;;9.97;6.57;;;;;;;15.13;37.75;96983.59;5061853;28;20225;-86
2021/03/02 09:37:50;;;;;;;9.07;6.80;;;;;;;15.17;37.21;96982.28;5061365;28;20721;-86
2021/03/02 09:40:17;;;;;;;8.30;7.30;;;;;;;15.17;37.81;96984.88;5049476;28;20320;-86
2021/03/02 09:42:55;;;;;;;7.47;6.57;;;;;;;15.25;37.73;96976.22;5051214;28;20695;-86
2021/03/02 09:45:21;;;;;;;7.07;6.37;;;;;;;15.28;38.51;96977.66;5063828;28;20319;-85
2021/03/02 09:47:57;;;;;;;9.83;6.83;;;;;;;15.43;38.67;96986.31;5050745;28;20224;-85
2021/03/02 09:50:25;;;;;;;8.90;6.77;;;;;;;15.64;38.36;96976.16;5051658;28;20596;-86
2021/03/02 09:52:52;;;;;;;11.37;6.97;;;;;;;15.48;37.53;96981.44;5044908;28;20657;-87
2021/03/02 09:55:28;;;;;;;8.90;7.13;;;;;;;15.65;37.84;96982.16;5047713;28;20217;-86
2021/03/02 09:58:01;;;;;;;37.57;31.63;;;;;;;15.73;38.17;96984.69;5047453;28;20221;-86
2021/03/02 10:00:29;;;;;;;11.87;10.53;;;;;;;15.90;38.09;96978.38;5042637;28;20255;-86
2021/03/02 10:02:57;;;;;;;8.70;6.60;;;;;;;15.91;37.66;96987.00;5038620;28;20225;-86
2021/03/02 10:05:41;;;;;;;13.70;7.40;;;;;;;15.95;37.35;96993.47;5022075;28;20224;-86
2021/03/02 10:08:22;;;;;;;10.37;7.90;;;;;;;15.78;37.73;96990.16;5036791;28;20240;-86
2021/03/02 10:10:50;;;;;;;8.87;7.03;;;;;;;15.87;37.86;96982.16;5033750;28;20190;-85
2021/03/02 10:13:31;;;;;;;10.07;7.33;;;;;;;15.83;37.46;96987.84;5047934;28;20202;-87
2021/03/02 10:16:22;;;;;;;9.63;7.17;;;;;;;16.01;37.92;96985.75;5033620;28;20233;-86
2021/03/02 10:18:55;;;;;;;9.47;7.17;;;;;;;16.15;37.71;96984.19;5047036;28;20226;-86
2021/03/02 10:21:22;;;;;;;18.03;7.87;;;;;;;16.37;37.38;96985.09;5036312;28;20260;-86
2021/03/02 10:23:50;;;;;;;8.13;7.27;;;;;;;16.53;37.38;96990.94;5044972;28;20248;-87
2021/03/02 10:26:28;;;;;;;7.73;6.93;;;;;;;16.59;36.96;96985.00;5044593;28;20233;-86
2021/03/02 10:28:54;;;;;;;9.90;7.20;;;;;;;16.64;37.32;96994.91;5033491;28;20248;-86
2021/03/02 10:31:21;;;;;;;8.13;6.95;;;;;;;16.74;37.09;96994.66;5027855;28;20199;-85
2021/03/02 10:33:47;;;;;;;11.63;7.60;;;;;;;16.55;36.86;96988.94;5047606;28;20233;-86
2021/03/02 10:36:19;;;;;;;9.30;7.60;;;;;;;16.42;37.00;96993.16;5034488;28;20312;-86
2021/03/02 10:38:45;;;;;;;21.07;17.83;;;;;;;16.26;36.66;96994.13;5038098;28;20218;-85
2021/03/02 10:41:11;;;;;;;19.23;17.17;;;;;;;16.30;37.44;96999.78;5028507;28;20226;-87
2021/03/02 10:43:37;;;;;;;11.77;10.57;;;;;;;16.29;36.30;96999.00;5051827;28;20197;-86
2021/03/02 10:46:03;;;;;;;9.90;7.10;;;;;;;16.21;36.88;97005.06;5038100;28;20237;-87
2021/03/02 10:48:29;;;;;;;11.73;7.22;;;;;;;16.31;36.76;96994.44;5051590;28;20213;-86
2021/03/02 10:50:55;;;;;;;11.90;7.45;;;;;;;16.20;36.57;96994.84;5038449;28;20656;-86
2021/03/02 10:53:22;;;;;;;8.55;7.70;;;;;;;16.34;37.23;96991.47;5050163;28;20229;-85
2021/03/02 10:55:49;;;;;;;10.60;7.33;;;;;;;16.48;37.66;96995.88;5043960;28;20214;-86
2021/03/02 10:58:16;;;;;;;13.90;7.72;;;;;;;16.49;37.28;96994.09;5040776;28;20198;-86
2021/03/02 11:00:42;;;;;;;13.02;8.02;;;;;;;16.40;37.19;96992.53;5040451;28;20222;-86
2021/03/02 11:03:07;;;;;;;12.30;8.23;;;;;;;16.40;37.47;96987.34;5046388;28;20655;-86
2021/03/02 11:05:35;;;;;;;10.20;8.60;;;;;;;16.53;38.08;96987.53;5035328;28;20237;-86
2021/03/02 11:08:03;;;;;;;13.35;8.85;;;;;;;16.40;36.99;96988.13;5045375;28;20197;-86
2021/03/02 11:10:30;;;;;;;10.17;9.13;;;;;;;15.92;37.07;96986.00;5032365;28;20197;-85
2021/03/02 11:12:56;;;;;;;13.00;9.47;;;;;;;15.71;38.46;96990.06;5044873;28;20295;-85
2021/03/02 11:15:22;;;;;;;13.10;9.30;;;;;;;15.81;39.04;96979.44;5049140;28;20229;-86
2021/03/02 11:17:48;;;;;;;12.97;9.67;;;;;;;16.10;39.04;96979.50;5036921;28;20612;-86
2021/03/02 11:20:14;;;;;;;13.23;9.63;;;;;;;16.38;38.66;96979.72;5044626;28;20264;-86
2021/03/02 11:22:40;;;;;;;13.17;9.97;;;;;;;16.32;38.70;96970.03;5043841;28;20701;-86
2021/03/02 11:25:08;;;;;;;17.13;10.20;;;;;;;16.43;37.73;96971.38;5049875;28;20229;-86
2021/03/02 11:27:34;;;;;;;10.73;9.63;;;;;;;16.44;37.73;96975.59;5035455;28;20693;-86
2021/03/02 11:30:00;;;;;;;13.40;9.90;;;;;;;16.41;38.14;96970.75;5038367;28;20305;-86
2021/03/02 11:32:26;;;;;;;14.70;10.00;;;;;;;16.50;38.18;96973.09;5041638;28;20710;-86
2021/03/02 11:34:52;;;;;;;10.83;8.70;;;;;;;16.65;37.70;96977.53;5037499;28;20206;-86
2021/03/02 11:37:18;;;;;;;14.20;9.38;;;;;;;16.50;37.41;96965.31;5025596;28;20209;-86
2021/03/02 11:39:44;;;;;;;15.30;13.73;;;;;;;16.43;37.17;96966.19;5037844;28;20637;-86
2021/03/02 11:42:11;;;;;;;14.43;12.93;;;;;;;16.29;37.50;96967.00;5022641;28;20340;-85
2021/03/02 11:44:38;;;;;;;15.02;10.05;;;;;;;16.34;38.13;96962.06;5037823;28;20222;-85